Azuqueca de Henares, Spain
Current Conditions -  °F | °C
As of 5:00 AM on Sunday 26 Oct 2014 (Local Time) from LETO Reporting Station
Clear Clear  
Wind Chill: 11°   Ceiling: Unl
Heat Index: 11°   Visibility: 6mi
Dew Point:   Wind: 3mph
Humidity: 82%   Direction: 40°NE
Pressure: 30.21"   Gusts: NA
Location:  40.57°N, 3.26°W
Report Text: LETO 260300Z 04003KT CAVOK 11/08 Q1023 NOSIG
Loading
Personal Weather Stations






























Interactive Weather Map
Tropical Storm Tracking
New forecast layout! Learn more

10-Day Weather Forecast

Advertisements
Track Severe Weather on mobile